Crestview, FL

5:10 AM CDT on October 23, 2014 (GMT -0500)
Sikes | Change Station
CLOSE
Current Station
Airport
Location: Crestview,
Elevation: 213 ft
Nearby Weather Stations

Elev 213 ft 30.78 °N, 86.52 °W | Updated 17 minutes ago

Clear
Clear
42 °F
Feels Like 40 °F
N
4
Wind Variable Wind from NE

Today
High -- | Low -- °F
--% Chance of Precip.
Yesterday
High -- | Low -- °F
Precip. -- in
6:54 AM 6:06 PM
Waning Crescent, 0% visible
Pressure 30.06 in
Visibility 10.0 miles
Clouds Clear
Windchill 40 °F
Dew Point 41 °F
Humidity 96%
Rainfall 0.00 in
Snow Depth Not available.
UV 0 out of 12
Pollen 4.10 out of 12
Air Quality Not available.
Flu Activity Local Activity
METAR KCEW 230953Z AUTO 05003KT 10SM CLR 06/05 A3006 RMK AO2 SLP178 T00560050

More Conditions Fewer Conditions

Pressure 30.06 in
Visibility 10.0 miles
Clouds Clear
Windchill 40 °F
Dew Point 41 °F
Humidity 96%
Rainfall 0.00 in
Snow Depth Not available.
UV 0 out of 12
Pollen 4.10 out of 12
Air Quality Not available.
Flu Activity Local Activity
METAR KCEW 230953Z AUTO 05003KT 10SM CLR 06/05 A3006 RMK AO2 SLP178 T00560050

More Conditions Fewer Conditions

10-Day Weather Forecast

Almanac

Astronomy

Oct. 23, 2014 Rise Set
Actual Time 6:54 AM CDT 6:06 PM CDT
Civil Twilight 6:29 AM CDT 6:30 PM CDT
Nautical Twilight 6:01 AM CDT 6:58 PM CDT
Astronomical Twilight 5:33 AM CDT 7:26 PM CDT
Moon 6:34 AM CDT 6:07 PM CDT
Length of Visible Light 12h 01m
Length of Day
11h 11m
Tomorrow will be 1m 43s shorter.
Waning Crescent, 0% of the Moon is Illuminated
Today
Waning Crescent
Oct 23
New
Oct 30
First Quarter
Nov 6
Full
Nov 14
Last Quarter

Today's Extremes

State Highs State Lows

Community

WunderPhotos

Upload Photos

1,764,202 photos uploaded!

Nearby

Air Quality

  Air Quality AQ Index Pollutant
Yesterday Good
PM2.5
Thursday Good
OZONE
Thursday Good
PM2.5

Snow Depth

Station Depth Elevation
No new snow has been reported.

Earthquake Activity

City Distance Mag. Time & Date
No recent earthquake activity has been reported nearby.
Minimum magnitude displayed is 2.5.

Coastal Water Temperatures

Place Temperature
No Stations Reporting

Nearby Weather Stations